CEFAS Endeavour — VQHF3 — position and weather

sailwx.info

Track history (hours):
 
Tides and Currents Weather Stations Pressure Air Temp Water Temp Dewpoint Dewpoint Depression Visibility Wind Speed Wind Dir Waves Ship Positions

Oceanographic research ship CEFAS Endeavour (UK)

Detailed information on ship capabilities available from University of Delaware's Ocean Information Center.

Last reported at 2019-Feb-22 21:38 UTC. Time now 2019-Feb-22 22:28 UTC.
Position N 49°53' W 002°16'.

Length 74 m; draft 8.6 m.

Type: Ship. MMSI: 235005270.

Date/timePositionNaut miles runAvg speedWind from/ knotsBaromVisibWave heightAir tempDewpointWater temp
2019-Feb-22 21:38N 49°53' W 002°16'0 0.8
2019-Feb-22 21:28N 49°53' W 002°16'1 2.5
2019-Feb-22 21:00N 49°53' W 002°17'1 2.6
2019-Feb-22 20:30N 49°52' W 002°19'2 2.4
2019-Feb-22 19:37N 49°53' W 002°16'1 7.7
2019-Feb-22 19:28N 49°52' W 002°17'1 3.3
2019-Feb-22 19:00N 49°51' W 002°16'912.1
2019-Feb-22 18:16N 49°47' W 002°04'2 8.4
2019-Feb-22 17:59N 49°45' W 002°05'3 5.4
2019-Feb-22 17:28N 49°47' W 002°01'4 7.1
2019-Feb-22 16:53N 49°43' W 002°05'410.1
2019-Feb-22 16:30N 49°45' W 002°10'4 7.9
2019-Feb-22 16:00N 49°45' W 002°16'3 6.4
2019-Feb-22 15:30N 49°45' W 002°21'3 5.8
2019-Feb-22 14:59N 49°44' W 002°26'3 5.4
2019-Feb-22 14:30N 49°43' W 002°29'0 0.7
2019-Feb-22 13:59N 49°43' W 002°30'1 2.4
2019-Feb-22 13:30N 49°42' W 002°31'1 2.8
2019-Feb-22 13:00N 49°41' W 002°33'2 3.9
2019-Feb-22 12:30N 49°43' W 002°34'1 2.5
2019-Feb-22 11:56N 49°44' W 002°33'1 3.2
2019-Feb-22 11:30N 49°45' W 002°31'1 2.2
2019-Feb-22 11:00N 49°46' W 002°30'1 1.0
2019-Feb-22 10:30N 49°46' W 002°30'0 0.5
2019-Feb-22 10:00N 49°46' W 002°29'2 3.3
2019-Feb-22 09:30N 49°45' W 002°30'2 3.1
2019-Feb-22 09:00N 49°44' W 002°29'3 5.1
2019-Feb-22 08:30N 49°46' W 002°29'4 8.0
2019-Feb-22 08:00N 49°44' W 002°34'3 6.8
2019-Feb-22 07:31N 49°44' W 002°40'1 1.6
2019-Feb-22 07:00N 49°44' W 002°38'1 1.5
2019-Feb-22 06:30N 49°43' W 002°39'0 0.9
2019-Feb-22 06:00N 49°43' W 002°40'1 2.0
2019-Feb-22 05:30N 49°43' W 002°41'3 5.3
2019-Feb-22 04:58N 49°41' W 002°45'0 0.8
2019-Feb-22 04:30N 49°42' W 002°45'1 2.3
2019-Feb-22 04:00N 49°43' W 002°43'1 2.7
2019-Feb-22 03:30N 49°43' W 002°42'1 1.6
2019-Feb-22 03:00N 49°44' W 002°42'2 4.6
2019-Feb-22 02:30N 49°44' W 002°45'1 2.2
2019-Feb-22 02:00N 49°45' W 002°44'1 2.0
2019-Feb-22 01:30N 49°45' W 002°42'1 1.4
2019-Feb-22 01:00N 49°45' W 002°41'0 0.8
2019-Feb-22 00:30N 49°45' W 002°41'0 0.5
2019-Feb-22 00:00N 49°45' W 002°40'0 0.5
2019-Feb-21 23:30N 49°45' W 002°40'2 4.3
2019-Feb-21 23:00N 49°46' W 002°42'3 5.2
2019-Feb-21 22:30N 49°49' W 002°44'3 5.9
2019-Feb-21 22:00N 49°52' W 002°45'3 5.4
2019-Feb-21 21:30N 49°54' W 002°45'2 4.0
2019-Feb-21 21:00N 49°56' W 002°46'2 3.8
2019-Feb-21 20:30N 49°58' W 002°46'0 0.5
2019-Feb-21 20:00N 49°58' W 002°46'3 5.8
2019-Feb-21 19:30N 49°58' W 002°42'1 1.9
2019-Feb-21 19:00N 49°59' W 002°40'2 3.9
2019-Feb-21 18:30N 49°58' W 002°43'2 3.0
2019-Feb-21 18:00N 49°58' W 002°45'2 3.8
2019-Feb-21 17:30N 49°58' W 002°48'1 2.8
2019-Feb-21 17:00N 49°58' W 002°46'611.4
2019-Feb-21 16:30N 49°59' W 002°37'2 3.7
2019-Feb-21 16:00N 49°59' W 002°35'1 1.8
2019-Feb-21 15:30N 49°59' W 002°36'1 1.7
2019-Feb-21 15:00N 49°58' W 002°37'1 1.8
2019-Feb-21 14:29N 49°58' W 002°39'1 2.4
2019-Feb-21 14:00N 49°58' W 002°40'8 7.6
2019-Feb-21 13:00N 49°60' W 002°29'1411.7
2019-Feb-21 11:48N 50°03' W 002°07'4 2.6
2019-Feb-21 10:23N 50°04' W 002°02'1 1.9
2019-Feb-21 09:53N 50°04' W 002°00'1 3.8
2019-Feb-21 09:30N 50°04' W 001°58'1 0.8
2019-Feb-21 08:41N 50°04' W 001°59'1 1.2
2019-Feb-21 08:07N 50°04' W 001°58'412.7
2019-Feb-21 07:48N 50°03' W 002°04'2 5.7
2019-Feb-21 07:27N 50°04' W 002°01'0 1.1
2019-Feb-21 07:00N 50°04' W 002°01'9 9.2
2019-Feb-21 05:59N 49°59' W 002°14'612.1
2019-Feb-21 05:28N 49°56' W 002°22'511.4
2019-Feb-21 05:00N 49°54' W 002°30'510.8
2019-Feb-21 04:30N 49°53' W 002°38'510.5
2019-Feb-21 04:00N 49°51' W 002°46'510.2
2019-Feb-21 03:31N 49°50' W 002°54'510.2
2019-Feb-21 03:00N 49°51' W 003°02'510.0
2019-Feb-21 02:30N 49°52' W 003°09'5 9.9
2019-Feb-21 02:00N 49°52' W 003°17'5 9.9
2019-Feb-21 01:31N 49°53' W 003°24'510.1
2019-Feb-21 01:00N 49°54' W 003°32'510.2
2019-Feb-21 00:30N 49°55' W 003°40'4 8.9
2019-Feb-21 00:01N 49°56' W 003°47'4 8.5
2019-Feb-20 23:30N 49°57' W 003°53'4 8.6
2019-Feb-20 23:00N 49°57' W 003°60'4 8.4
2019-Feb-20 22:30N 49°59' W 004°06'5 9.1
2019-Feb-20 22:00N 49°60' W 004°13'5 9.3
2019-Feb-20 21:30N 50°00' W 004°20'5 9.3
2019-Feb-20 21:00N 50°01' W 004°27'14 9.5
2019-Feb-20 19:31N 50°04' W 004°49'8 7.7
2019-Feb-20 18:32N 50°06' W 005°00'0 9.6
2019-Feb-20 18:30N 50°06' W 005°00'7 0.2
2019-Feb-19 03:30N 49°60' W 005°04'44 4.2
2019-Feb-18 16:57N 50°36' W 005°43'7 9.3
2019-Feb-18 16:12N 50°42' W 005°36'2 9.3
2019-Feb-18 16:00N 50°43' W 005°35'5 9.3
2019-Feb-18 15:30N 50°47' W 005°31'1 2.7
2019-Feb-18 14:57N 50°48' W 005°29'2 2.9
2019-Feb-18 14:25N 50°49' W 005°27'1 2.5
2019-Feb-18 14:00N 50°50' W 005°26'1 2.8
2019-Feb-18 13:30N 50°50' W 005°24'2 3.2
2019-Feb-18 13:01N 50°51' W 005°22'4 3.7
2019-Feb-18 12:04N 50°50' W 005°27'0 1.1
2019-Feb-18 11:58N 50°50' W 005°27'5 8.0
2019-Feb-18 11:21N 50°52' W 005°34'81 3.6
2019-Feb-17 12:37N 51°24' W 007°33'110.5
2019-Feb-17 12:31N 51°25' W 007°34'510.5
2019-Feb-17 12:00N 51°26' W 007°42'510.4
2019-Feb-17 11:31N 51°28' W 007°50'3 4.9
2019-Feb-17 10:58N 51°30' W 007°53'2 4.5
2019-Feb-17 10:30N 51°32' W 007°51'2 4.7
2019-Feb-17 10:01N 51°34' W 007°49'2 3.8
2019-Feb-17 09:30N 51°36' W 007°47'1 2.9
2019-Feb-17 09:01N 51°34' W 007°48'3 5.1
2019-Feb-17 08:30N 51°32' W 007°50'3 5.6
2019-Feb-17 08:01N 51°30' W 007°52'3 6.7
2019-Feb-17 07:31N 51°27' W 007°54'1 1.5
2019-Feb-17 06:58N 51°26' W 007°54'3 2.9
2019-Feb-17 05:54N 51°28' W 007°51'4 2.9
2019-Feb-17 04:42N 51°31' W 007°48'1 2.9
2019-Feb-17 04:30N 51°31' W 007°47'1 2.8
2019-Feb-17 03:59N 51°33' W 007°46'1 2.8
2019-Feb-17 03:30N 51°34' W 007°46'2 3.1
2019-Feb-17 03:00N 51°36' W 007°45'1 2.3
2019-Feb-17 02:31N 51°37' W 007°45'1 1.4
2019-Feb-17 02:00N 51°38' W 007°45'2 3.9
2019-Feb-17 01:30N 51°36' W 007°47'3 6.5
2019-Feb-17 01:01N 51°33' W 007°50'3 6.5
2019-Feb-17 00:31N 51°30' W 007°52'3 6.6
2019-Feb-17 00:00N 51°27' W 007°55'2 2.4
2019-Feb-16 23:14N 51°26' W 007°52'2 3.4
2019-Feb-16 22:42N 51°27' W 007°50'1 3.9
2019-Feb-16 22:25N 51°28' W 007°49'2 3.9
2019-Feb-16 21:58N 51°30' W 007°49'2 4.6
2019-Feb-16 21:30N 51°31' W 007°45'5 9.3
2019-Feb-16 20:55N 51°31' W 007°37'27 1.6
2019-Feb-16 04:15N 51°56' W 007°19'1 5.9
2019-Feb-16 04:00N 51°55' W 007°20'3 5.9
2019-Feb-16 03:31N 51°53' W 007°24'3 6.3
2019-Feb-16 03:00N 51°50' W 007°26'3 6.2
2019-Feb-16 02:31N 51°47' W 007°29'3 6.3
2019-Feb-16 02:01N 51°44' W 007°31'3 6.4
2019-Feb-16 01:31N 51°42' W 007°33'3 6.4
2019-Feb-16 01:01N 51°39' W 007°37'3 6.5
2019-Feb-16 00:31N 51°36' W 007°39'3 6.5
2019-Feb-16 00:00N 51°34' W 007°43'510.3
2019-Feb-15 23:31N 51°32' W 007°50'2 3.1
2019-Feb-15 23:01N 51°33' W 007°49'2 3.1
2019-Feb-15 22:31N 51°34' W 007°46'5 9.6
2019-Feb-15 22:01N 51°32' W 007°53'5 9.6
2019-Feb-15 21:31N 51°30' W 008°01'611.4
2019-Feb-15 21:00N 51°28' W 008°09'611.4
2019-Feb-15 20:31N 51°24' W 008°17'611.9
2019-Feb-15 20:00N 51°20' W 008°23'43 4.4
2019-Feb-15 10:06N 50°56' W 009°20'410.7
2019-Feb-15 09:44N 50°58' W 009°26'310.2
2019-Feb-15 09:29N 50°59' W 009°29'4 7.0
2019-Feb-15 08:54N 51°02' W 009°33'4 8.2
2019-Feb-15 08:28N 51°04' W 009°37'5 9.0
2019-Feb-15 07:58N 51°07' W 009°43'2 2.5
2019-Feb-15 07:07N 51°08' W 009°40'0 3.0
2019-Feb-15 06:59N 51°08' W 009°40'2 3.0
2019-Feb-15 06:29N 51°09' W 009°38'2 3.6
2019-Feb-15 05:58N 51°10' W 009°35'1 1.3
2019-Feb-15 05:29N 51°09' W 009°35'510.4
2019-Feb-15 04:59N 51°08' W 009°27'1110.6
2019-Feb-15 03:55N 51°10' W 009°09'710.6
2019-Feb-15 03:13N 51°11' W 008°57'2110.6
2019-Feb-15 01:11N 51°13' W 008°23'210.7
2019-Feb-15 01:00N 51°13' W 008°20'610.4
2019-Feb-15 00:28N 51°14' W 008°11'510.5
2019-Feb-15 00:01N 51°15' W 008°03'710.2
2019-Feb-14 23:18N 51°15' W 007°52'310.3
2019-Feb-14 23:01N 51°16' W 007°47'510.4
2019-Feb-14 22:31N 51°16' W 007°39'510.5
2019-Feb-14 22:00N 51°17' W 007°31'610.4
2019-Feb-14 21:28N 51°18' W 007°21'510.7
2019-Feb-14 21:00N 51°18' W 007°14'710.9
2019-Feb-14 20:24N 51°19' W 007°03'410.8
2019-Feb-14 20:01N 51°18' W 006°57'611.7
2019-Feb-14 19:31N 51°15' W 006°49'5 9.2
2019-Feb-14 19:00N 51°13' W 006°42'2 2.8
2019-Feb-14 18:10N 51°14' W 006°39'4 3.4
2019-Feb-14 16:55N 51°16' W 006°34'611.5
2019-Feb-14 16:22N 51°15' W 006°24'411.5
2019-Feb-14 16:01N 51°14' W 006°18'6 9.4
2019-Feb-14 15:22N 51°13' W 006°08'3 3.8
2019-Feb-14 14:31N 51°14' W 006°03'0 3.1
2019-Feb-14 14:29N 51°14' W 006°04'2 3.1
2019-Feb-14 13:55N 51°12' W 006°06'1 3.4
2019-Feb-14 13:30N 51°11' W 006°07'15 6.1
2019-Feb-14 11:05N 51°22' W 005°50'1 3.8
2019-Feb-14 10:46N 51°21' W 005°52'2 3.5
2019-Feb-14 10:17N 51°20' W 005°53'2 3.5
2019-Feb-14 09:51N 51°18' W 005°55'2 4.0
2019-Feb-14 09:24N 51°17' W 005°56'15 9.1
2019-Feb-14 07:43N 51°27' W 005°37'0 1.1
2019-Feb-14 07:30N 51°27' W 005°38'0 0.1
2019-Feb-14 07:00N 51°27' W 005°38'2 3.1
2019-Feb-14 06:19N 51°26' W 005°41'2 3.4
2019-Feb-14 05:43N 51°26' W 005°44'7 5.1
2019-Feb-14 04:18N 51°25' W 005°56'3 3.5
2019-Feb-14 03:36N 51°28' W 005°56'25 3.9
2019-Feb-13 21:20N 51°48' W 006°20'1 1.7
2019-Feb-13 20:32N 51°47' W 006°18'011.0
2019-Feb-13 20:30N 51°47' W 006°17'1010.3
2019-Feb-13 19:34N 51°44' W 006°02'21 4.2
2019-Feb-13 14:41N 51°40' W 005°30'210.8
2019-Feb-13 14:30N 51°39' W 005°27'511.1
2019-Feb-13 14:01N 51°38' W 005°18'510.7
2019-Feb-13 13:31N 51°37' W 005°10'4 8.7
2019-Feb-13 13:01N 51°33' W 005°07'4 7.5
2019-Feb-13 12:31N 51°31' W 005°12'611.6
2019-Feb-13 12:01N 51°27' W 005°19'612.1
2019-Feb-13 11:30N 51°22' W 005°25'712.3
2019-Feb-13 10:57N 51°17' W 005°32'11 2.8
2019-Feb-13 06:50N 51°14' W 005°14'5 9.8
2019-Feb-13 06:21N 51°15' W 005°06'17 6.9
2019-Feb-13 03:50N 51°17' W 004°39'1 3.3
2019-Feb-13 03:30N 51°17' W 004°40'2 3.2
2019-Feb-13 02:59N 51°16' W 004°43'27 6.0
2019-Feb-12 22:33N 51°23' W 004°01'  
Track history (hours):
 
Tides and Currents Weather Stations Pressure Air Temp Water Temp Dewpoint Dewpoint Depression Visibility Wind Speed Wind Dir Waves Ship Positions

Oceanographic research ship CEFAS Endeavour (UK)

Detailed information on ship capabilities available from University of Delaware's Ocean Information Center.

Last reported at 2019-Feb-22 21:38 UTC. Time now 2019-Feb-22 22:28 UTC.
Position N 49°53' W 002°16'.

Length 74 m; draft 8.6 m.

Type: Ship. MMSI: 235005270.

Date/timePositionNaut miles runAvg speedWind from/ knotsBaromVisibWave heightAir tempDewpointWater temp
2019-Feb-22 21:38N 49°53' W 002°16'0 0.8
2019-Feb-22 21:28N 49°53' W 002°16'1 2.5
2019-Feb-22 21:00N 49°53' W 002°17'1 2.6
2019-Feb-22 20:30N 49°52' W 002°19'2 2.4
2019-Feb-22 19:37N 49°53' W 002°16'1 7.7
2019-Feb-22 19:28N 49°52' W 002°17'1 3.3
2019-Feb-22 19:00N 49°51' W 002°16'912.1
2019-Feb-22 18:16N 49°47' W 002°04'2 8.4
2019-Feb-22 17:59N 49°45' W 002°05'3 5.4
2019-Feb-22 17:28N 49°47' W 002°01'4 7.1
2019-Feb-22 16:53N 49°43' W 002°05'410.1
2019-Feb-22 16:30N 49°45' W 002°10'4 7.9
2019-Feb-22 16:00N 49°45' W 002°16'3 6.4
2019-Feb-22 15:30N 49°45' W 002°21'3 5.8
2019-Feb-22 14:59N 49°44' W 002°26'3 5.4
2019-Feb-22 14:30N 49°43' W 002°29'0 0.7
2019-Feb-22 13:59N 49°43' W 002°30'1 2.4
2019-Feb-22 13:30N 49°42' W 002°31'1 2.8
2019-Feb-22 13:00N 49°41' W 002°33'2 3.9
2019-Feb-22 12:30N 49°43' W 002°34'1 2.5
2019-Feb-22 11:56N 49°44' W 002°33'1 3.2
2019-Feb-22 11:30N 49°45' W 002°31'1 2.2
2019-Feb-22 11:00N 49°46' W 002°30'1 1.0
2019-Feb-22 10:30N 49°46' W 002°30'0 0.5
2019-Feb-22 10:00N 49°46' W 002°29'2 3.3
2019-Feb-22 09:30N 49°45' W 002°30'2 3.1
2019-Feb-22 09:00N 49°44' W 002°29'3 5.1
2019-Feb-22 08:30N 49°46' W 002°29'4 8.0
2019-Feb-22 08:00N 49°44' W 002°34'3 6.8
2019-Feb-22 07:31N 49°44' W 002°40'1 1.6
2019-Feb-22 07:00N 49°44' W 002°38'1 1.5
2019-Feb-22 06:30N 49°43' W 002°39'0 0.9
2019-Feb-22 06:00N 49°43' W 002°40'1 2.0
2019-Feb-22 05:30N 49°43' W 002°41'3 5.3
2019-Feb-22 04:58N 49°41' W 002°45'0 0.8
2019-Feb-22 04:30N 49°42' W 002°45'1 2.3
2019-Feb-22 04:00N 49°43' W 002°43'1 2.7
2019-Feb-22 03:30N 49°43' W 002°42'1 1.6
2019-Feb-22 03:00N 49°44' W 002°42'2 4.6
2019-Feb-22 02:30N 49°44' W 002°45'1 2.2
2019-Feb-22 02:00N 49°45' W 002°44'1 2.0
2019-Feb-22 01:30N 49°45' W 002°42'1 1.4
2019-Feb-22 01:00N 49°45' W 002°41'0 0.8
2019-Feb-22 00:30N 49°45' W 002°41'0 0.5
2019-Feb-22 00:00N 49°45' W 002°40'0 0.5
2019-Feb-21 23:30N 49°45' W 002°40'2 4.3
2019-Feb-21 23:00N 49°46' W 002°42'3 5.2
2019-Feb-21 22:30N 49°49' W 002°44'3 5.9
2019-Feb-21 22:00N 49°52' W 002°45'3 5.4
2019-Feb-21 21:30N 49°54' W 002°45'2 4.0
2019-Feb-21 21:00N 49°56' W 002°46'2 3.8
2019-Feb-21 20:30N 49°58' W 002°46'0 0.5
2019-Feb-21 20:00N 49°58' W 002°46'3 5.8
2019-Feb-21 19:30N 49°58' W 002°42'1 1.9
2019-Feb-21 19:00N 49°59' W 002°40'2 3.9
2019-Feb-21 18:30N 49°58' W 002°43'2 3.0
2019-Feb-21 18:00N 49°58' W 002°45'2 3.8
2019-Feb-21 17:30N 49°58' W 002°48'1 2.8
2019-Feb-21 17:00N 49°58' W 002°46'611.4
2019-Feb-21 16:30N 49°59' W 002°37'2 3.7
2019-Feb-21 16:00N 49°59' W 002°35'1 1.8
2019-Feb-21 15:30N 49°59' W 002°36'1 1.7
2019-Feb-21 15:00N 49°58' W 002°37'1 1.8
2019-Feb-21 14:29N 49°58' W 002°39'1 2.4
2019-Feb-21 14:00N 49°58' W 002°40'8 7.6
2019-Feb-21 13:00N 49°60' W 002°29'1411.7
2019-Feb-21 11:48N 50°03' W 002°07'4 2.6
2019-Feb-21 10:23N 50°04' W 002°02'1 1.9
2019-Feb-21 09:53N 50°04' W 002°00'1 3.8
2019-Feb-21 09:30N 50°04' W 001°58'1 0.8
2019-Feb-21 08:41N 50°04' W 001°59'1 1.2
2019-Feb-21 08:07N 50°04' W 001°58'412.7
2019-Feb-21 07:48N 50°03' W 002°04'2 5.7
2019-Feb-21 07:27N 50°04' W 002°01'0 1.1
2019-Feb-21 07:00N 50°04' W 002°01'9 9.2
2019-Feb-21 05:59N 49°59' W 002°14'612.1
2019-Feb-21 05:28N 49°56' W 002°22'511.4
2019-Feb-21 05:00N 49°54' W 002°30'510.8
2019-Feb-21 04:30N 49°53' W 002°38'510.5
2019-Feb-21 04:00N 49°51' W 002°46'510.2
2019-Feb-21 03:31N 49°50' W 002°54'510.2
2019-Feb-21 03:00N 49°51' W 003°02'510.0
2019-Feb-21 02:30N 49°52' W 003°09'5 9.9
2019-Feb-21 02:00N 49°52' W 003°17'5 9.9
2019-Feb-21 01:31N 49°53' W 003°24'510.1
2019-Feb-21 01:00N 49°54' W 003°32'510.2
2019-Feb-21 00:30N 49°55' W 003°40'4 8.9
2019-Feb-21 00:01N 49°56' W 003°47'4 8.5
2019-Feb-20 23:30N 49°57' W 003°53'4 8.6
2019-Feb-20 23:00N 49°57' W 003°60'4 8.4
2019-Feb-20 22:30N 49°59' W 004°06'5 9.1
2019-Feb-20 22:00N 49°60' W 004°13'5 9.3
2019-Feb-20 21:30N 50°00' W 004°20'5 9.3
2019-Feb-20 21:00N 50°01' W 004°27'14 9.5
2019-Feb-20 19:31N 50°04' W 004°49'8 7.7
2019-Feb-20 18:32N 50°06' W 005°00'0 9.6
2019-Feb-20 18:30N 50°06' W 005°00'7 0.2
2019-Feb-19 03:30N 49°60' W 005°04'44 4.2
2019-Feb-18 16:57N 50°36' W 005°43'7 9.3
2019-Feb-18 16:12N 50°42' W 005°36'2 9.3
2019-Feb-18 16:00N 50°43' W 005°35'5 9.3
2019-Feb-18 15:30N 50°47' W 005°31'1 2.7
2019-Feb-18 14:57N 50°48' W 005°29'2 2.9
2019-Feb-18 14:25N 50°49' W 005°27'1 2.5
2019-Feb-18 14:00N 50°50' W 005°26'1 2.8
2019-Feb-18 13:30N 50°50' W 005°24'2 3.2
2019-Feb-18 13:01N 50°51' W 005°22'4 3.7
2019-Feb-18 12:04N 50°50' W 005°27'0 1.1
2019-Feb-18 11:58N 50°50' W 005°27'5 8.0
2019-Feb-18 11:21N 50°52' W 005°34'81 3.6
2019-Feb-17 12:37N 51°24' W 007°33'110.5
2019-Feb-17 12:31N 51°25' W 007°34'510.5
2019-Feb-17 12:00N 51°26' W 007°42'510.4
2019-Feb-17 11:31N 51°28' W 007°50'3 4.9
2019-Feb-17 10:58N 51°30' W 007°53'2 4.5
2019-Feb-17 10:30N 51°32' W 007°51'2 4.7
2019-Feb-17 10:01N 51°34' W 007°49'2 3.8
2019-Feb-17 09:30N 51°36' W 007°47'1 2.9
2019-Feb-17 09:01N 51°34' W 007°48'3 5.1
2019-Feb-17 08:30N 51°32' W 007°50'3 5.6
2019-Feb-17 08:01N 51°30' W 007°52'3 6.7
2019-Feb-17 07:31N 51°27' W 007°54'1 1.5
2019-Feb-17 06:58N 51°26' W 007°54'3 2.9
2019-Feb-17 05:54N 51°28' W 007°51'4 2.9
2019-Feb-17 04:42N 51°31' W 007°48'1 2.9
2019-Feb-17 04:30N 51°31' W 007°47'1 2.8
2019-Feb-17 03:59N 51°33' W 007°46'1 2.8
2019-Feb-17 03:30N 51°34' W 007°46'2 3.1
2019-Feb-17 03:00N 51°36' W 007°45'1 2.3
2019-Feb-17 02:31N 51°37' W 007°45'1 1.4
2019-Feb-17 02:00N 51°38' W 007°45'2 3.9
2019-Feb-17 01:30N 51°36' W 007°47'3 6.5
2019-Feb-17 01:01N 51°33' W 007°50'3 6.5
2019-Feb-17 00:31N 51°30' W 007°52'3 6.6
2019-Feb-17 00:00N 51°27' W 007°55'2 2.4
2019-Feb-16 23:14N 51°26' W 007°52'2 3.4
2019-Feb-16 22:42N 51°27' W 007°50'1 3.9
2019-Feb-16 22:25N 51°28' W 007°49'2 3.9
2019-Feb-16 21:58N 51°30' W 007°49'2 4.6
2019-Feb-16 21:30N 51°31' W 007°45'5 9.3
2019-Feb-16 20:55N 51°31' W 007°37'27 1.6
2019-Feb-16 04:15N 51°56' W 007°19'1 5.9
2019-Feb-16 04:00N 51°55' W 007°20'3 5.9
2019-Feb-16 03:31N 51°53' W 007°24'3 6.3
2019-Feb-16 03:00N 51°50' W 007°26'3 6.2
2019-Feb-16 02:31N 51°47' W 007°29'3 6.3
2019-Feb-16 02:01N 51°44' W 007°31'3 6.4
2019-Feb-16 01:31N 51°42' W 007°33'3 6.4
2019-Feb-16 01:01N 51°39' W 007°37'3 6.5
2019-Feb-16 00:31N 51°36' W 007°39'3 6.5
2019-Feb-16 00:00N 51°34' W 007°43'510.3
2019-Feb-15 23:31N 51°32' W 007°50'2 3.1
2019-Feb-15 23:01N 51°33' W 007°49'2 3.1
2019-Feb-15 22:31N 51°34' W 007°46'5 9.6
2019-Feb-15 22:01N 51°32' W 007°53'5 9.6
2019-Feb-15 21:31N 51°30' W 008°01'611.4
2019-Feb-15 21:00N 51°28' W 008°09'611.4
2019-Feb-15 20:31N 51°24' W 008°17'611.9
2019-Feb-15 20:00N 51°20' W 008°23'43 4.4
2019-Feb-15 10:06N 50°56' W 009°20'410.7
2019-Feb-15 09:44N 50°58' W 009°26'310.2
2019-Feb-15 09:29N 50°59' W 009°29'4 7.0
2019-Feb-15 08:54N 51°02' W 009°33'4 8.2
2019-Feb-15 08:28N 51°04' W 009°37'5 9.0
2019-Feb-15 07:58N 51°07' W 009°43'2 2.5
2019-Feb-15 07:07N 51°08' W 009°40'0 3.0
2019-Feb-15 06:59N 51°08' W 009°40'2 3.0
2019-Feb-15 06:29N 51°09' W 009°38'2 3.6
2019-Feb-15 05:58N 51°10' W 009°35'1 1.3
2019-Feb-15 05:29N 51°09' W 009°35'510.4
2019-Feb-15 04:59N 51°08' W 009°27'1110.6
2019-Feb-15 03:55N 51°10' W 009°09'710.6
2019-Feb-15 03:13N 51°11' W 008°57'2110.6
2019-Feb-15 01:11N 51°13' W 008°23'210.7
2019-Feb-15 01:00N 51°13' W 008°20'610.4
2019-Feb-15 00:28N 51°14' W 008°11'510.5
2019-Feb-15 00:01N 51°15' W 008°03'710.2
2019-Feb-14 23:18N 51°15' W 007°52'310.3
2019-Feb-14 23:01N 51°16' W 007°47'510.4
2019-Feb-14 22:31N 51°16' W 007°39'510.5
2019-Feb-14 22:00N 51°17' W 007°31'610.4
2019-Feb-14 21:28N 51°18' W 007°21'510.7
2019-Feb-14 21:00N 51°18' W 007°14'710.9
2019-Feb-14 20:24N 51°19' W 007°03'410.8
2019-Feb-14 20:01N 51°18' W 006°57'611.7
2019-Feb-14 19:31N 51°15' W 006°49'5 9.2
2019-Feb-14 19:00N 51°13' W 006°42'2 2.8
2019-Feb-14 18:10N 51°14' W 006°39'4 3.4
2019-Feb-14 16:55N 51°16' W 006°34'611.5
2019-Feb-14 16:22N 51°15' W 006°24'411.5
2019-Feb-14 16:01N 51°14' W 006°18'6 9.4
2019-Feb-14 15:22N 51°13' W 006°08'3 3.8
2019-Feb-14 14:31N 51°14' W 006°03'0 3.1
2019-Feb-14 14:29N 51°14' W 006°04'2 3.1
2019-Feb-14 13:55N 51°12' W 006°06'1 3.4
2019-Feb-14 13:30N 51°11' W 006°07'15 6.1
2019-Feb-14 11:05N 51°22' W 005°50'1 3.8
2019-Feb-14 10:46N 51°21' W 005°52'2 3.5
2019-Feb-14 10:17N 51°20' W 005°53'2 3.5
2019-Feb-14 09:51N 51°18' W 005°55'2 4.0
2019-Feb-14 09:24N 51°17' W 005°56'15 9.1
2019-Feb-14 07:43N 51°27' W 005°37'0 1.1
2019-Feb-14 07:30N 51°27' W 005°38'0 0.1
2019-Feb-14 07:00N 51°27' W 005°38'2 3.1
2019-Feb-14 06:19N 51°26' W 005°41'2 3.4
2019-Feb-14 05:43N 51°26' W 005°44'7 5.1
2019-Feb-14 04:18N 51°25' W 005°56'3 3.5
2019-Feb-14 03:36N 51°28' W 005°56'25 3.9
2019-Feb-13 21:20N 51°48' W 006°20'1 1.7
2019-Feb-13 20:32N 51°47' W 006°18'011.0
2019-Feb-13 20:30N 51°47' W 006°17'1010.3
2019-Feb-13 19:34N 51°44' W 006°02'21 4.2
2019-Feb-13 14:41N 51°40' W 005°30'210.8
2019-Feb-13 14:30N 51°39' W 005°27'511.1
2019-Feb-13 14:01N 51°38' W 005°18'510.7
2019-Feb-13 13:31N 51°37' W 005°10'4 8.7
2019-Feb-13 13:01N 51°33' W 005°07'4 7.5
2019-Feb-13 12:31N 51°31' W 005°12'611.6
2019-Feb-13 12:01N 51°27' W 005°19'612.1
2019-Feb-13 11:30N 51°22' W 005°25'712.3
2019-Feb-13 10:57N 51°17' W 005°32'11 2.8
2019-Feb-13 06:50N 51°14' W 005°14'5 9.8
2019-Feb-13 06:21N 51°15' W 005°06'17 6.9
2019-Feb-13 03:50N 51°17' W 004°39'1 3.3
2019-Feb-13 03:30N 51°17' W 004°40'2 3.2
2019-Feb-13 02:59N 51°16' W 004°43'27 6.0
2019-Feb-12 22:33N 51°23' W 004°01'  

Dump ship's entire track history